createdAt,value
2022-12-06T00:01:39.416Z,100.00
2022-12-06T00:04:11.759Z,100.00
2022-12-06T00:06:48.004Z,100.00
2022-12-06T00:09:20.157Z,100.00
2022-12-06T00:11:47.586Z,100.00
2022-12-06T00:14:14.847Z,100.00
2022-12-06T00:16:41.808Z,100.00
2022-12-06T00:19:13.859Z,100.00
2022-12-06T00:21:40.956Z,100.00
2022-12-06T00:24:14.324Z,100.00
2022-12-06T00:26:45.123Z,100.00
2022-12-06T00:29:20.216Z,100.00
2022-12-06T00:31:48.561Z,100.00
2022-12-06T00:34:16.202Z,100.00
2022-12-06T00:36:43.736Z,100.00
2022-12-06T00:39:16.656Z,100.00
2022-12-06T00:41:44.609Z,100.00
2022-12-06T00:44:12.468Z,100.00
2022-12-06T00:46:40.015Z,100.00
2022-12-06T00:49:08.996Z,100.00
2022-12-06T00:51:37.897Z,100.00
2022-12-06T00:54:07.111Z,100.00
2022-12-06T00:56:36.725Z,100.00
2022-12-06T00:59:04.315Z,100.00
2022-12-06T01:01:33.598Z,100.00
2022-12-06T01:04:05.246Z,100.00
2022-12-06T01:06:34.784Z,100.00
2022-12-06T01:09:07.294Z,100.00
2022-12-06T01:11:34.229Z,100.00
2022-12-06T01:14:01.943Z,100.00
2022-12-06T01:16:31.248Z,100.00
2022-12-06T01:19:02.411Z,100.00
2022-12-06T01:21:29.693Z,100.00
2022-12-06T01:23:57.229Z,100.00
2022-12-06T01:26:29.217Z,100.00
2022-12-06T01:28:59.846Z,100.00
2022-12-06T01:31:33.638Z,100.00
2022-12-06T01:34:04.590Z,100.00
2022-12-06T01:36:31.557Z,100.00
2022-12-06T01:38:59.056Z,100.00
2022-12-06T01:41:27.197Z,100.00
2022-12-06T01:43:56.152Z,100.00
2022-12-06T01:46:39.932Z,100.00
2022-12-06T01:49:12.644Z,100.00
2022-12-06T01:51:51.375Z,100.00
2022-12-06T01:54:21.511Z,100.00
2022-12-06T01:56:51.345Z,100.00
2022-12-06T01:59:20.504Z,100.00
2022-12-06T02:01:48.611Z,100.00
2022-12-06T02:04:17.787Z,100.00
2022-12-06T02:06:46.852Z,100.00
2022-12-06T02:09:16.862Z,100.00
2022-12-06T02:11:44.274Z,100.00
2022-12-06T02:14:17.929Z,100.00
2022-12-06T02:17:15.251Z,100.00
2022-12-06T02:20:16.549Z,100.00
2022-12-06T02:23:42.571Z,100.00
2022-12-06T02:26:28.666Z,100.00
2022-12-06T02:29:02.217Z,100.00
2022-12-06T02:31:36.136Z,100.00
2022-12-06T02:34:07.076Z,100.00
2022-12-06T02:36:53.034Z,100.00
2022-12-06T02:39:26.792Z,100.00
2022-12-06T02:42:15.290Z,100.00
2022-12-06T02:44:49.796Z,100.00
2022-12-06T02:47:22.246Z,100.00
2022-12-06T02:49:50.338Z,100.00
2022-12-06T02:52:21.482Z,100.00
2022-12-06T02:54:49.839Z,100.00
2022-12-06T02:57:23.508Z,100.00
2022-12-06T02:59:54.769Z,100.00
2022-12-06T03:02:23.516Z,100.00
2022-12-06T03:05:26.877Z,100.00
2022-12-06T03:07:54.747Z,100.00
2022-12-06T03:10:40.712Z,100.00
2022-12-06T03:13:22.775Z,100.00
2022-12-06T03:16:00.963Z,100.00
2022-12-06T03:18:56.054Z,100.00
2022-12-06T03:21:43.624Z,100.00
2022-12-06T03:24:15.474Z,100.00
2022-12-06T03:26:47.699Z,100.00
2022-12-06T03:29:21.408Z,100.00
2022-12-06T03:31:50.337Z,100.00
2022-12-06T03:34:26.595Z,100.00
2022-12-06T03:36:54.917Z,100.00
2022-12-06T03:39:41.747Z,100.00
2022-12-06T03:42:09.806Z,100.00
2022-12-06T03:44:37.504Z,100.00
2022-12-06T03:47:16.052Z,100.00
2022-12-06T03:49:59.516Z,100.00
2022-12-06T03:52:30.340Z,100.00
2022-12-06T03:54:57.399Z,100.00
2022-12-06T03:57:24.129Z,100.00
2022-12-06T03:59:50.951Z,100.00
2022-12-06T04:02:18.434Z,100.00
2022-12-06T04:04:45.537Z,100.00
2022-12-06T04:07:12.649Z,100.00
2022-12-06T04:10:03.056Z,100.00
2022-12-06T04:12:54.225Z,100.00
2022-12-06T04:15:22.904Z,100.00
2022-12-06T04:18:08.119Z,100.00
2022-12-06T04:20:53.738Z,100.00
2022-12-06T04:23:21.334Z,100.00
2022-12-06T04:25:48.090Z,100.00
2022-12-06T04:28:33.824Z,100.00
2022-12-06T04:31:22.407Z,100.00
2022-12-06T04:34:09.928Z,100.00
2022-12-06T04:36:57.110Z,100.00
2022-12-06T04:39:24.906Z,100.00
2022-12-06T04:42:11.743Z,100.00
2022-12-06T04:44:39.181Z,100.00
2022-12-06T04:47:06.984Z,100.00
2022-12-06T04:49:34.836Z,100.00
2022-12-06T04:52:03.084Z,100.00
2022-12-06T04:54:30.672Z,100.00
2022-12-06T04:56:58.872Z,100.00
2022-12-06T04:59:27.416Z,100.00
2022-12-06T05:01:56.406Z,100.00
2022-12-06T05:04:23.416Z,100.00
2022-12-06T05:06:50.242Z,100.00
2022-12-06T05:09:16.962Z,100.00
2022-12-06T05:11:43.744Z,100.00
2022-12-06T05:14:10.472Z,100.00
2022-12-06T05:16:37.384Z,100.00
2022-12-06T05:19:04.417Z,100.00
2022-12-06T05:21:31.262Z,100.00
2022-12-06T05:23:58.395Z,100.00
2022-12-06T05:26:28.935Z,100.00
2022-12-06T05:28:56.961Z,100.00
2022-12-06T05:31:25.317Z,100.00
2022-12-06T05:33:53.278Z,100.00
2022-12-06T05:36:24.941Z,100.00
2022-12-06T05:38:53.033Z,100.00
2022-12-06T05:41:22.432Z,100.00
2022-12-06T05:43:49.494Z,100.00
2022-12-06T05:46:17.230Z,100.00
2022-12-06T05:48:44.874Z,100.00
2022-12-06T05:51:12.287Z,100.00
2022-12-06T05:53:40.801Z,100.00
2022-12-06T05:56:11.310Z,100.00
2022-12-06T05:58:39.115Z,100.00
2022-12-06T06:01:08.734Z,100.00
2022-12-06T06:03:36.568Z,100.00
2022-12-06T06:06:04.876Z,100.00
2022-12-06T06:08:32.345Z,100.00
2022-12-06T06:11:00.093Z,100.00
2022-12-06T06:13:27.405Z,100.00
2022-12-06T06:15:55.336Z,100.00
2022-12-06T06:18:22.655Z,100.00
2022-12-06T06:20:57.608Z,100.00
2022-12-06T06:23:33.565Z,100.00
2022-12-06T06:26:00.359Z,100.00
2022-12-06T06:28:27.074Z,100.00
2022-12-06T06:30:53.797Z,100.00
2022-12-06T06:33:21.232Z,100.00
2022-12-06T06:35:48.002Z,100.00
2022-12-06T06:38:14.761Z,100.00
2022-12-06T06:40:41.522Z,100.00
2022-12-06T06:43:23.510Z,100.00
2022-12-06T06:46:06.996Z,100.00
2022-12-06T06:48:39.052Z,100.00
2022-12-06T06:51:12.766Z,100.00
2022-12-06T06:53:39.976Z,100.00
2022-12-06T06:56:07.725Z,100.00
2022-12-06T06:58:34.582Z,100.00
2022-12-06T07:01:04.300Z,100.00
2022-12-06T07:03:31.869Z,100.00
2022-12-06T07:06:02.605Z,100.00
2022-12-06T07:08:31.483Z,100.00
2022-12-06T07:10:59.321Z,100.00
2022-12-06T07:13:28.404Z,100.00
2022-12-06T07:15:55.982Z,100.00
2022-12-06T07:18:23.291Z,100.00
2022-12-06T07:21:03.544Z,100.00
2022-12-06T07:23:32.963Z,100.00
2022-12-06T07:26:03.424Z,100.00
2022-12-06T07:28:30.622Z,100.00
2022-12-06T07:30:57.467Z,100.00
2022-12-06T07:33:24.207Z,100.00
2022-12-06T07:36:12.525Z,100.00
2022-12-06T07:38:42.317Z,100.00
2022-12-06T07:41:30.230Z,100.00
2022-12-06T07:44:17.164Z,100.00
2022-12-06T07:46:45.014Z,100.00
2022-12-06T07:49:11.907Z,100.00
2022-12-06T07:51:40.087Z,100.00
2022-12-06T07:54:07.515Z,100.00
2022-12-06T07:56:34.254Z,100.00
2022-12-06T07:59:02.043Z,100.00
2022-12-06T08:01:29.232Z,100.00
2022-12-06T08:03:56.291Z,100.00
2022-12-06T08:06:24.217Z,100.00
2022-12-06T08:08:50.968Z,100.00
2022-12-06T08:11:17.809Z,100.00
2022-12-06T08:13:44.546Z,100.00
2022-12-06T08:16:13.042Z,100.00
2022-12-06T08:18:41.666Z,100.00
2022-12-06T08:21:10.248Z,100.00
2022-12-06T08:23:37.202Z,100.00
2022-12-06T08:26:12.342Z,100.00
2022-12-06T08:28:39.384Z,100.00
2022-12-06T08:31:15.588Z,100.00
2022-12-06T08:33:43.185Z,100.00
2022-12-06T08:36:17.096Z,100.00
2022-12-06T08:38:44.611Z,100.00
2022-12-06T08:41:31.490Z,100.00
2022-12-06T08:44:01.182Z,100.00
2022-12-06T08:46:30.088Z,100.00
2022-12-06T08:48:57.113Z,100.00
2022-12-06T08:51:24.246Z,100.00
2022-12-06T08:53:54.129Z,100.00
2022-12-06T08:56:22.553Z,100.00
2022-12-06T08:58:50.191Z,100.00
2022-12-06T09:01:22.533Z,100.00
2022-12-06T09:03:49.434Z,100.00
2022-12-06T09:06:17.100Z,100.00
2022-12-06T09:08:45.791Z,100.00
2022-12-06T09:11:14.801Z,100.00
2022-12-06T09:13:42.293Z,100.00
2022-12-06T09:16:18.550Z,100.00
2022-12-06T09:18:47.610Z,100.00
2022-12-06T09:21:21.815Z,100.00
2022-12-06T09:23:49.903Z,100.00
2022-12-06T09:26:17.111Z,100.00
2022-12-06T09:28:49.436Z,100.00
2022-12-06T09:31:17.670Z,100.00
2022-12-06T09:33:45.494Z,100.00
2022-12-06T09:36:27.069Z,100.00
2022-12-06T09:39:30.165Z,100.00
2022-12-06T09:42:38.430Z,100.00
2022-12-06T09:45:11.317Z,100.00
2022-12-06T09:48:06.535Z,100.00
2022-12-06T09:51:10.629Z,100.00
2022-12-06T09:53:52.968Z,100.00
2022-12-06T09:56:38.743Z,100.00
2022-12-06T09:59:17.404Z,100.00
2022-12-06T10:01:58.723Z,100.00
2022-12-06T10:04:52.860Z,100.00
2022-12-06T10:08:04.615Z,100.00
2022-12-06T10:11:09.010Z,100.00
2022-12-06T10:14:20.194Z,100.00
2022-12-06T10:16:57.149Z,100.00
2022-12-06T10:19:48.179Z,100.00
2022-12-06T10:22:52.094Z,100.00
2022-12-06T10:25:37.281Z,100.00
2022-12-06T10:28:11.150Z,100.00
2022-12-06T10:30:51.744Z,100.00
2022-12-06T10:33:48.304Z,100.00
2022-12-06T10:36:40.843Z,100.00
2022-12-06T10:39:25.672Z,100.00
2022-12-06T10:42:08.341Z,100.00
2022-12-06T10:44:49.957Z,100.00
2022-12-06T10:47:28.009Z,100.00
2022-12-06T10:50:14.667Z,100.00
2022-12-06T10:52:50.047Z,100.00
2022-12-06T10:55:28.006Z,100.00
2022-12-06T10:58:03.567Z,100.00
2022-12-06T11:00:41.955Z,100.00
2022-12-06T11:03:21.533Z,100.00
2022-12-06T11:06:10.464Z,100.00
2022-12-06T11:08:44.243Z,100.00
2022-12-06T11:11:18.727Z,100.00
2022-12-06T11:13:54.335Z,100.00
2022-12-06T11:16:44.605Z,100.00
2022-12-06T11:19:33.434Z,100.00
2022-12-06T11:22:30.550Z,100.00
2022-12-06T11:25:14.642Z,100.00
2022-12-06T11:28:25.768Z,100.00
2022-12-06T11:30:56.572Z,100.00
2022-12-06T11:33:34.421Z,100.00
2022-12-06T11:36:06.360Z,99.24
2022-12-06T11:38:38.819Z,100.00
2022-12-06T11:41:13.563Z,99.67
2022-12-06T11:43:40.856Z,99.15
2022-12-06T11:46:13.896Z,98.62
2022-12-06T11:48:42.431Z,95.58
2022-12-06T11:51:25.797Z,99.34
2022-12-06T11:53:58.352Z,98.63
2022-12-06T11:56:30.180Z,95.59
2022-12-06T11:59:21.116Z,95.15
2022-12-06T12:01:52.168Z,91.36
2022-12-06T12:04:43.971Z,95.41
2022-12-06T12:07:11.172Z,93.88
2022-12-06T12:09:46.953Z,93.74
2022-12-06T12:12:19.612Z,93.39
2022-12-06T12:14:57.047Z,95.54
2022-12-06T12:17:31.359Z,90.95
2022-12-06T12:20:06.468Z,88.61
2022-12-06T12:22:45.444Z,89.26
2022-12-06T12:25:24.602Z,91.20
2022-12-06T12:27:55.537Z,91.16
2022-12-06T12:30:36.966Z,87.85
2022-12-06T12:33:07.102Z,87.68
2022-12-06T12:36:04.769Z,87.62
2022-12-06T12:38:55.438Z,87.04
2022-12-06T12:41:43.928Z,88.39
2022-12-06T12:44:42.426Z,88.63
2022-12-06T12:47:20.196Z,87.91
2022-12-06T12:50:20.256Z,92.73
2022-12-06T12:52:47.851Z,91.31
2022-12-06T12:55:20.575Z,92.34
2022-12-06T12:57:51.459Z,93.38
2022-12-06T13:00:28.522Z,94.41
2022-12-06T13:03:34.868Z,96.80
2022-12-06T13:06:00.637Z,93.27
2022-12-06T13:08:36.424Z,93.52
2022-12-06T13:11:06.171Z,95.76
2022-12-06T13:13:55.870Z,97.29
2022-12-06T13:16:35.365Z,98.75
2022-12-06T13:19:02.809Z,100.00
2022-12-06T13:21:40.043Z,100.00
2022-12-06T13:24:09.776Z,99.23
2022-12-06T13:26:44.756Z,99.96
2022-12-06T13:29:31.448Z,100.00
2022-12-06T13:32:13.954Z,100.00
2022-12-06T13:35:02.567Z,100.00
2022-12-06T13:37:52.233Z,100.00
2022-12-06T13:40:46.412Z,100.00
2022-12-06T13:43:26.057Z,100.00
2022-12-06T13:46:10.991Z,100.00
2022-12-06T13:48:57.043Z,100.00
2022-12-06T13:51:33.087Z,99.89
2022-12-06T13:54:05.584Z,100.00
2022-12-06T13:56:40.648Z,99.36
2022-12-06T13:59:14.851Z,99.00
2022-12-06T14:01:49.017Z,99.54
2022-12-06T14:09:46.475Z,100.00
2022-12-06T14:12:18.111Z,100.00
2022-12-06T14:15:02.387Z,100.00
2022-12-06T14:20:32.020Z,100.00
2022-12-06T14:22:58.851Z,100.00
2022-12-06T14:25:30.446Z,100.00
2022-12-06T14:28:07.467Z,100.00
2022-12-06T14:30:34.504Z,100.00
2022-12-06T14:33:01.433Z,100.00
2022-12-06T14:35:35.914Z,100.00
2022-12-06T14:38:23.866Z,100.00
2022-12-06T14:41:10.807Z,100.00
2022-12-06T14:43:40.663Z,100.00
2022-12-06T14:46:13.716Z,100.00
2022-12-06T14:48:59.566Z,100.00
2022-12-06T14:51:36.722Z,100.00
2022-12-06T14:54:42.779Z,100.00
2022-12-06T14:57:22.460Z,100.00
2022-12-06T15:00:25.288Z,100.00
2022-12-06T15:03:13.129Z,100.00
2022-12-06T15:05:57.463Z,100.00
2022-12-06T15:08:27.300Z,100.00
2022-12-06T15:11:04.325Z,100.00
2022-12-06T15:13:31.260Z,100.00
2022-12-06T15:16:08.250Z,100.00
2022-12-06T15:18:58.537Z,100.00
2022-12-06T15:21:25.301Z,100.00
2022-12-06T15:23:57.075Z,100.00
2022-12-06T15:26:24.945Z,100.00
2022-12-06T15:28:51.973Z,100.00
2022-12-06T15:31:26.527Z,100.00
2022-12-06T15:33:54.932Z,100.00
2022-12-06T15:36:30.844Z,100.00
2022-12-06T15:38:57.913Z,100.00
2022-12-06T15:41:28.082Z,100.00
2022-12-06T15:43:57.512Z,100.00
2022-12-06T15:46:29.328Z,100.00
2022-12-06T15:48:56.804Z,100.00
2022-12-06T15:51:26.967Z,100.00
2022-12-06T15:53:56.575Z,100.00
2022-12-06T15:56:27.669Z,100.00
2022-12-06T15:58:54.759Z,100.00
2022-12-06T16:01:34.654Z,100.00
2022-12-06T16:04:03.287Z,100.00
2022-12-06T16:06:30.057Z,100.00
2022-12-06T16:08:57.177Z,100.00
2022-12-06T16:11:26.614Z,100.00
2022-12-06T16:13:53.531Z,100.00
2022-12-06T16:16:22.557Z,100.00
2022-12-06T16:18:50.952Z,100.00
2022-12-06T16:21:27.924Z,100.00
2022-12-06T16:24:18.209Z,100.00
2022-12-06T16:26:46.036Z,100.00
2022-12-06T16:29:24.791Z,100.00
2022-12-06T16:31:52.965Z,100.00
2022-12-06T16:34:20.427Z,100.00
2022-12-06T16:36:57.836Z,100.00
2022-12-06T16:39:25.413Z,100.00
2022-12-06T16:41:52.141Z,100.00
2022-12-06T16:44:18.891Z,100.00
2022-12-06T16:46:46.556Z,100.00
2022-12-06T16:52:13.994Z,100.00
2022-12-06T16:54:43.701Z,100.00
2022-12-06T16:57:14.849Z,100.00
2022-12-06T16:59:42.963Z,100.00
2022-12-06T17:02:32.358Z,100.00
2022-12-06T17:05:03.016Z,100.00
2022-12-06T17:07:30.728Z,100.00
2022-12-06T17:09:57.623Z,100.00
2022-12-06T17:12:24.848Z,100.00
2022-12-06T17:14:51.879Z,100.00
2022-12-06T17:17:22.201Z,100.00
2022-12-06T17:19:49.724Z,100.00
2022-12-06T17:22:18.588Z,100.00
2022-12-06T17:24:45.738Z,100.00
2022-12-06T17:27:14.735Z,100.00
2022-12-06T17:29:43.897Z,100.00
2022-12-06T17:32:11.898Z,100.00
2022-12-06T17:34:38.669Z,100.00
2022-12-06T17:37:06.209Z,100.00
2022-12-06T17:39:33.230Z,100.00
2022-12-06T17:42:18.395Z,100.00
2022-12-06T17:44:45.155Z,100.00
2022-12-06T17:47:12.347Z,100.00
2022-12-06T17:49:39.124Z,100.00
2022-12-06T17:52:06.248Z,100.00
2022-12-06T17:54:33.113Z,100.00
2022-12-06T17:56:59.957Z,100.00
2022-12-06T17:59:31.738Z,100.00
2022-12-06T18:02:17.499Z,100.00
2022-12-06T18:04:47.168Z,100.00
2022-12-06T18:07:15.162Z,100.00
2022-12-06T18:09:41.940Z,100.00
2022-12-06T18:12:12.164Z,100.00
2022-12-06T18:14:39.048Z,100.00
2022-12-06T18:17:07.823Z,100.00
2022-12-06T18:19:35.431Z,100.00
2022-12-06T18:22:02.952Z,100.00
2022-12-06T18:24:35.212Z,100.00
2022-12-06T18:27:05.046Z,100.00
2022-12-06T18:29:32.814Z,100.00
2022-12-06T18:31:59.624Z,100.00
2022-12-06T18:34:26.519Z,100.00
2022-12-06T18:36:53.228Z,100.00
2022-12-06T18:39:26.076Z,100.00
2022-12-06T18:41:54.461Z,100.00
2022-12-06T18:44:22.614Z,100.00
2022-12-06T18:46:49.404Z,100.00
2022-12-06T18:49:16.302Z,100.00
2022-12-06T18:51:43.131Z,100.00
2022-12-06T18:54:14.052Z,100.00
2022-12-06T18:56:42.261Z,100.00
2022-12-06T18:59:11.283Z,100.00
2022-12-06T19:01:40.525Z,100.00
2022-12-06T19:04:13.176Z,100.00
2022-12-06T19:06:40.253Z,100.00
2022-12-06T19:09:11.687Z,100.00
2022-12-06T19:11:42.080Z,100.00
2022-12-06T19:14:10.098Z,100.00
2022-12-06T19:16:46.507Z,100.00
2022-12-06T19:19:23.538Z,100.00
2022-12-06T19:21:52.938Z,100.00
2022-12-06T19:24:23.833Z,100.00
2022-12-06T19:26:52.892Z,100.00
2022-12-06T19:29:19.916Z,100.00
2022-12-06T19:31:47.443Z,100.00
2022-12-06T19:34:20.883Z,100.00
2022-12-06T19:36:50.022Z,100.00
2022-12-06T19:39:17.999Z,100.00
2022-12-06T19:42:04.007Z,100.00
2022-12-06T19:44:31.120Z,100.00
2022-12-06T19:46:58.375Z,100.00
2022-12-06T19:49:27.151Z,100.00
2022-12-06T19:51:54.337Z,100.00
2022-12-06T19:54:28.257Z,100.00
2022-12-06T19:56:57.983Z,100.00
2022-12-06T19:59:34.338Z,100.00
2022-12-06T20:02:02.813Z,100.00
2022-12-06T20:04:33.705Z,100.00
2022-12-06T20:07:00.901Z,100.00
2022-12-06T20:09:30.842Z,100.00
2022-12-06T20:12:01.510Z,100.00
2022-12-06T20:14:37.175Z,100.00
2022-12-06T20:17:20.154Z,100.00
2022-12-06T20:19:48.990Z,100.00
2022-12-06T20:22:18.083Z,100.00
2022-12-06T20:24:45.017Z,100.00
2022-12-06T20:27:12.300Z,100.00
2022-12-06T20:29:40.104Z,100.00
2022-12-06T20:32:06.848Z,100.00
2022-12-06T20:34:34.905Z,100.00
2022-12-06T20:37:04.537Z,100.00
2022-12-06T20:39:36.107Z,100.00
2022-12-06T20:42:06.012Z,100.00
2022-12-06T20:44:33.629Z,100.00
2022-12-06T20:47:04.237Z,100.00
2022-12-06T20:49:31.319Z,100.00
2022-12-06T20:51:59.665Z,100.00
2022-12-06T20:54:26.389Z,100.00
2022-12-06T20:56:53.517Z,100.00
2022-12-06T20:59:21.231Z,100.00
2022-12-06T21:01:48.128Z,100.00
2022-12-06T21:04:17.991Z,100.00
2022-12-06T21:06:44.810Z,100.00
2022-12-06T21:09:11.666Z,100.00
2022-12-06T21:11:38.941Z,100.00
2022-12-06T21:14:06.220Z,100.00
2022-12-06T21:16:35.233Z,100.00
2022-12-06T21:19:06.935Z,100.00
2022-12-06T21:21:39.999Z,100.00
2022-12-06T21:24:12.196Z,100.00
2022-12-06T21:26:39.510Z,100.00
2022-12-06T21:29:06.644Z,100.00
2022-12-06T21:31:38.257Z,100.00
2022-12-06T21:34:05.944Z,100.00
2022-12-06T21:36:33.185Z,100.00
2022-12-06T21:39:00.418Z,100.00
2022-12-06T21:41:27.589Z,100.00
2022-12-06T21:43:54.663Z,100.00
2022-12-06T21:46:25.170Z,100.00
2022-12-06T21:48:58.998Z,100.00
2022-12-06T21:51:30.232Z,100.00
2022-12-06T21:53:58.161Z,100.00
2022-12-06T21:56:29.407Z,100.00
2022-12-06T21:58:56.437Z,100.00
2022-12-06T22:01:27.902Z,100.00
2022-12-06T22:03:59.453Z,100.00
2022-12-06T22:06:26.803Z,100.00
2022-12-06T22:09:01.352Z,100.00
2022-12-06T22:11:29.861Z,100.00
2022-12-06T22:13:59.188Z,100.00
2022-12-06T22:16:27.952Z,100.00
2022-12-06T22:18:55.263Z,100.00
2022-12-06T22:21:28.115Z,100.00
2022-12-06T22:23:58.148Z,100.00
2022-12-06T22:26:28.389Z,100.00
2022-12-06T22:28:55.769Z,100.00
2022-12-06T22:31:26.026Z,100.00
2022-12-06T22:33:53.706Z,100.00
2022-12-06T22:36:21.966Z,100.00
2022-12-06T22:38:51.868Z,100.00
2022-12-06T22:41:20.036Z,100.00
2022-12-06T22:43:51.364Z,100.00
2022-12-06T22:46:18.647Z,100.00
2022-12-06T22:48:46.341Z,100.00
2022-12-06T22:51:30.931Z,100.00
2022-12-06T22:54:04.856Z,100.00
2022-12-06T22:56:33.593Z,100.00
2022-12-06T22:59:01.958Z,100.00
2022-12-06T23:01:32.454Z,100.00
2022-12-06T23:04:02.904Z,100.00
2022-12-06T23:06:30.975Z,100.00
2022-12-06T23:08:57.751Z,100.00
2022-12-06T23:11:31.492Z,100.00
2022-12-06T23:13:59.188Z,100.00
2022-12-06T23:16:29.047Z,100.00
2022-12-06T23:18:56.192Z,100.00
2022-12-06T23:21:30.016Z,100.00
2022-12-06T23:24:04.398Z,100.00
2022-12-06T23:26:45.261Z,100.00
2022-12-06T23:29:12.884Z,100.00
2022-12-06T23:31:43.445Z,100.00
2022-12-06T23:34:26.084Z,100.00
2022-12-06T23:36:53.941Z,100.00
2022-12-06T23:39:20.832Z,100.00
2022-12-06T23:41:47.655Z,100.00
2022-12-06T23:44:14.635Z,100.00
2022-12-06T23:46:43.658Z,100.00
2022-12-06T23:49:22.390Z,100.00
2022-12-06T23:51:50.399Z,100.00
2022-12-06T23:54:18.246Z,100.00
2022-12-06T23:56:45.620Z,100.00
2022-12-06T23:59:16.259Z,100.00
